الصفحة الرئيسية
METAR-TAF:

METAR-TAF

مطار :

Grafton, أستراليا

دائرة عرض: 29-45-36S, خط طول: 153-01-48E, ارتفاع: 34 متر

مراقبة الطقس الحالي

تاريخ ووقت الإصدار 33 دقيقة قبل الساعة 13:30UTC
رياح هادئة
درجة الحرارة 18°درجة مئوية
الرطوبة 100%
ضغط 1014 hPa
الرؤية: 0250 متر
ملبد بالغيوم على ارتفاع 100 قدم

METAR: YGFN 101330Z AUTO 00000KT 0250 // OVC001 18/18 Q1014

زمن: 00:03 (14:03 UTC)


TAF: مفقودة

أرصاد الطقس والتوقعات من أكثر من 4000 مطار (تقارير الطقس للمطار METAR والتنبؤ بالطقس بالمطارTAF).

المحطات المتاحة هي النقط الصفراء والحمراء على الخريطة.

حرك المؤشر فوق النقطة لمعرفة اسم المحطة.

ثم انقر لمعرفة أرصاد وتوقعات الطقس.

لتغيير الخارطة: اضغط على الأزرار الخضراء مع رمز الصليب الأسود للتكبير. على الزر الأخضر مع شرطة للتصغير، أو على الأسهم الخضراء للخرائط المجاورة.


METAR-TAF: